Terminal Aerodrome Forecast
Issued by NWS Flagstaff, AZ

Home | Current Version | Previous Version | Text Only | Print | Product List | Glossary On
Versions: 1 2 3 4 5 6 7 8 9 10 11 12 13 14 15 16 17 18 19 20 21
000
FTUS45 KFGZ 260800 AAB
TAFFLG
TAF AMD
KFLG 260830Z 2609/2706 28006KT P6SM VCSH BKN005 OVC025
      TEMPO 2609/2611 4SM -SHSN BR
     FM261130 30007KT P6SM VCFG SCT005 BKN012
     FM261600 33011G18KT P6SM VCSH BKN025
     FM262100 31010G17KT P6SM BKN050=

USA.gov is the U.S. government's official web portal to all federal, state and local government web resources and services.